sensor_id;sensor_type;location;lat;lon;timestamp;pressure;altitude;pressure_sealevel;temperature;humidity
60611;BME280;46439;51.164;13.572;2023-03-22T00:00:27;99791.08;;;13.39;78.18
60611;BME280;46439;51.164;13.572;2023-03-22T00:02:57;99790.85;;;13.38;78.33
60611;BME280;46439;51.164;13.572;2023-03-22T00:05:25;99788.92;;;13.35;78.34
60611;BME280;46439;51.164;13.572;2023-03-22T00:07:54;99789.59;;;13.34;78.35
60611;BME280;46439;51.164;13.572;2023-03-22T00:10:25;99787.55;;;13.33;78.28
60611;BME280;46439;51.164;13.572;2023-03-22T00:12:56;99779.35;;;13.30;78.34
60611;BME280;46439;51.164;13.572;2023-03-22T00:15:24;99780.42;;;13.30;78.39
60611;BME280;46439;51.164;13.572;2023-03-22T00:17:53;99779.20;;;13.27;78.34
60611;BME280;46439;51.164;13.572;2023-03-22T00:20:48;99776.77;;;13.25;78.35
60611;BME280;46439;51.164;13.572;2023-03-22T00:23:17;99775.23;;;13.20;78.27
60611;BME280;46439;51.164;13.572;2023-03-22T00:26:07;99773.32;;;13.14;78.11
60611;BME280;46439;51.164;13.572;2023-03-22T00:28:36;99771.14;;;13.12;78.17
60611;BME280;46439;51.164;13.572;2023-03-22T00:31:07;99770.89;;;13.12;78.33
60611;BME280;46439;51.164;13.572;2023-03-22T00:33:37;99764.21;;;13.10;78.31
60611;BME280;46439;51.164;13.572;2023-03-22T00:36:09;99761.32;;;13.07;78.29
60611;BME280;46439;51.164;13.572;2023-03-22T00:38:38;99755.52;;;13.06;78.19
60611;BME280;46439;51.164;13.572;2023-03-22T00:41:10;99753.77;;;13.07;78.39
60611;BME280;46439;51.164;13.572;2023-03-22T00:43:39;99753.88;;;13.06;78.38
60611;BME280;46439;51.164;13.572;2023-03-22T00:46:08;99749.58;;;13.03;78.46
60611;BME280;46439;51.164;13.572;2023-03-22T00:48:37;99751.01;;;12.98;78.31
60611;BME280;46439;51.164;13.572;2023-03-22T00:51:07;99746.52;;;12.95;78.29
60611;BME280;46439;51.164;13.572;2023-03-22T00:53:36;99746.22;;;12.93;78.33
60611;BME280;46439;51.164;13.572;2023-03-22T00:56:07;99740.20;;;12.92;78.40
60611;BME280;46439;51.164;13.572;2023-03-22T00:58:35;99739.70;;;12.89;78.36
60611;BME280;46439;51.164;13.572;2023-03-22T01:01:05;99741.90;;;12.87;78.38
60611;BME280;46439;51.164;13.572;2023-03-22T01:03:34;99741.10;;;12.85;78.49
60611;BME280;46439;51.164;13.572;2023-03-22T01:06:03;99738.90;;;12.80;78.39
60611;BME280;46439;51.164;13.572;2023-03-22T01:08:32;99740.73;;;12.74;78.30
60611;BME280;46439;51.164;13.572;2023-03-22T01:11:01;99743.04;;;12.71;78.30
60611;BME280;46439;51.164;13.572;2023-03-22T01:13:30;99738.94;;;12.69;78.41
60611;BME280;46439;51.164;13.572;2023-03-22T01:15:58;99743.80;;;12.67;78.31
60611;BME280;46439;51.164;13.572;2023-03-22T01:18:27;99745.17;;;12.65;78.34
60611;BME280;46439;51.164;13.572;2023-03-22T01:20:56;99736.10;;;12.62;78.38
60611;BME280;46439;51.164;13.572;2023-03-22T01:23:24;99728.79;;;12.58;78.36
60611;BME280;46439;51.164;13.572;2023-03-22T01:25:53;99728.44;;;12.51;78.35
60611;BME280;46439;51.164;13.572;2023-03-22T01:28:21;99726.91;;;12.46;78.24
60611;BME280;46439;51.164;13.572;2023-03-22T01:30:50;99724.54;;;12.42;78.24
60611;BME280;46439;51.164;13.572;2023-03-22T01:33:19;99730.63;;;12.37;78.16
60611;BME280;46439;51.164;13.572;2023-03-22T01:35:48;99728.28;;;12.31;78.07
60611;BME280;46439;51.164;13.572;2023-03-22T01:38:16;99718.94;;;12.23;77.94
60611;BME280;46439;51.164;13.572;2023-03-22T01:40:45;99713.45;;;12.19;77.90
60611;BME280;46439;51.164;13.572;2023-03-22T01:43:16;99712.24;;;12.16;77.88
60611;BME280;46439;51.164;13.572;2023-03-22T01:45:45;99708.17;;;12.11;77.80
60611;BME280;46439;51.164;13.572;2023-03-22T01:48:20;99707.62;;;12.05;77.75
60611;BME280;46439;51.164;13.572;2023-03-22T01:50:57;99705.23;;;12.01;77.71
60611;BME280;46439;51.164;13.572;2023-03-22T01:53:32;99700.65;;;11.98;77.94
60611;BME280;46439;51.164;13.572;2023-03-22T01:56:03;99704.75;;;11.92;77.84
60611;BME280;46439;51.164;13.572;2023-03-22T01:58:35;99704.54;;;11.86;77.80
60611;BME280;46439;51.164;13.572;2023-03-22T02:01:05;99704.44;;;11.74;77.70
60611;BME280;46439;51.164;13.572;2023-03-22T02:03:39;99703.34;;;11.63;77.45
60611;BME280;46439;51.164;13.572;2023-03-22T02:06:10;99705.55;;;11.51;77.09
60611;BME280;46439;51.164;13.572;2023-03-22T02:08:39;99711.27;;;11.45;77.24
60611;BME280;46439;51.164;13.572;2023-03-22T02:11:12;99712.47;;;11.42;77.17
60611;BME280;46439;51.164;13.572;2023-03-22T02:14:10;99710.36;;;11.38;77.41
60611;BME280;46439;51.164;13.572;2023-03-22T02:16:51;99709.98;;;11.31;77.26
60611;BME280;46439;51.164;13.572;2023-03-22T02:19:48;99707.94;;;11.31;77.49
60611;BME280;46439;51.164;13.572;2023-03-22T02:22:42;99707.65;;;11.31;77.56
60611;BME280;46439;51.164;13.572;2023-03-22T02:25:35;99707.91;;;11.21;77.55
60611;BME280;46439;51.164;13.572;2023-03-22T02:28:29;99708.09;;;11.15;77.46
60611;BME280;46439;51.164;13.572;2023-03-22T02:37:25;99702.66;;;11.04;77.59
60611;BME280;46439;51.164;13.572;2023-03-22T02:40:03;99695.52;;;11.02;77.55
60611;BME280;46439;51.164;13.572;2023-03-22T02:42:46;99691.41;;;11.02;77.71
60611;BME280;46439;51.164;13.572;2023-03-22T02:45:19;99689.77;;;11.01;77.77
60611;BME280;46439;51.164;13.572;2023-03-22T02:47:56;99688.79;;;10.98;77.82
60611;BME280;46439;51.164;13.572;2023-03-22T02:50:31;99689.23;;;10.96;78.07
60611;BME280;46439;51.164;13.572;2023-03-22T02:53:05;99683.96;;;10.95;77.99
60611;BME280;46439;51.164;13.572;2023-03-22T02:55:38;99686.06;;;10.89;78.12
60611;BME280;46439;51.164;13.572;2023-03-22T02:58:12;99686.85;;;10.83;78.13
60611;BME280;46439;51.164;13.572;2023-03-22T03:00:43;99683.75;;;10.73;77.81
60611;BME280;46439;51.164;13.572;2023-03-22T03:03:15;99682.77;;;10.68;77.61
60611;BME280;46439;51.164;13.572;2023-03-22T03:05:46;99680.04;;;10.62;77.77
60611;BME280;46439;51.164;13.572;2023-03-22T03:08:17;99677.85;;;10.55;77.67
60611;BME280;46439;51.164;13.572;2023-03-22T03:10:47;99671.17;;;10.43;77.77
60611;BME280;46439;51.164;13.572;2023-03-22T03:13:17;99671.55;;;10.35;77.72
60611;BME280;46439;51.164;13.572;2023-03-22T03:15:49;99672.44;;;10.29;77.50
60611;BME280;46439;51.164;13.572;2023-03-22T03:18:36;99675.42;;;10.22;77.59
60611;BME280;46439;51.164;13.572;2023-03-22T03:21:14;99680.68;;;10.18;77.49
60611;BME280;46439;51.164;13.572;2023-03-22T03:23:53;99685.20;;;10.18;77.72
60611;BME280;46439;51.164;13.572;2023-03-22T03:26:29;99685.59;;;10.14;77.47
60611;BME280;46439;51.164;13.572;2023-03-22T03:29:04;99688.75;;;10.10;77.50
60611;BME280;46439;51.164;13.572;2023-03-22T03:31:39;99686.39;;;10.06;77.39
60611;BME280;46439;51.164;13.572;2023-03-22T03:34:18;99688.11;;;10.00;77.31
60611;BME280;46439;51.164;13.572;2023-03-22T03:36:53;99692.09;;;9.94;77.45
60611;BME280;46439;51.164;13.572;2023-03-22T03:39:25;99690.13;;;9.88;77.24
60611;BME280;46439;51.164;13.572;2023-03-22T03:41:56;99695.61;;;9.86;77.22
60611;BME280;46439;51.164;13.572;2023-03-22T03:44:26;99694.92;;;9.87;77.49
60611;BME280;46439;51.164;13.572;2023-03-22T03:46:56;99694.27;;;9.88;77.57
60611;BME280;46439;51.164;13.572;2023-03-22T03:49:26;99692.27;;;9.89;77.66
60611;BME280;46439;51.164;13.572;2023-03-22T03:51:55;99694.65;;;9.90;77.84
60611;BME280;46439;51.164;13.572;2023-03-22T03:54:24;99690.30;;;9.91;78.04
60611;BME280;46439;51.164;13.572;2023-03-22T03:56:54;99694.42;;;9.92;78.08
60611;BME280;46439;51.164;13.572;2023-03-22T03:59:22;99689.49;;;9.90;77.80
60611;BME280;46439;51.164;13.572;2023-03-22T04:01:51;99694.77;;;9.91;78.07
60611;BME280;46439;51.164;13.572;2023-03-22T04:04:21;99693.61;;;9.93;78.14
60611;BME280;46439;51.164;13.572;2023-03-22T04:06:54;99693.99;;;9.96;78.10
60611;BME280;46439;51.164;13.572;2023-03-22T04:09:30;99693.98;;;9.97;78.55
60611;BME280;46439;51.164;13.572;2023-03-22T04:11:59;99691.85;;;9.99;78.43
60611;BME280;46439;51.164;13.572;2023-03-22T04:14:28;99692.50;;;10.01;78.63
60611;BME280;46439;51.164;13.572;2023-03-22T04:16:57;99690.42;;;10.03;78.35
60611;BME280;46439;51.164;13.572;2023-03-22T04:19:26;99690.20;;;10.02;78.52
60611;BME280;46439;51.164;13.572;2023-03-22T04:21:55;99684.57;;;10.03;78.70
60611;BME280;46439;51.164;13.572;2023-03-22T04:24:23;99685.36;;;10.03;78.50
60611;BME280;46439;51.164;13.572;2023-03-22T04:26:52;99684.11;;;10.00;78.57
60611;BME280;46439;51.164;13.572;2023-03-22T04:29:20;99687.57;;;9.98;78.60
60611;BME280;46439;51.164;13.572;2023-03-22T04:31:50;99685.77;;;10.02;78.53
60611;BME280;46439;51.164;13.572;2023-03-22T04:34:20;99685.23;;;10.03;78.77
60611;BME280;46439;51.164;13.572;2023-03-22T04:36:48;99685.55;;;10.02;78.77
60611;BME280;46439;51.164;13.572;2023-03-22T04:39:18;99685.04;;;10.00;78.56
60611;BME280;46439;51.164;13.572;2023-03-22T04:41:47;99686.84;;;10.00;78.85
60611;BME280;46439;51.164;13.572;2023-03-22T04:44:15;99682.15;;;9.99;78.63
60611;BME280;46439;51.164;13.572;2023-03-22T04:46:43;99684.10;;;9.97;78.62
60611;BME280;46439;51.164;13.572;2023-03-22T04:49:12;99685.17;;;9.97;78.65
60611;BME280;46439;51.164;13.572;2023-03-22T04:51:41;99678.28;;;9.96;78.77
60611;BME280;46439;51.164;13.572;2023-03-22T04:54:10;99678.31;;;9.98;78.86
60611;BME280;46439;51.164;13.572;2023-03-22T04:56:38;99679.13;;;9.95;78.69
60611;BME280;46439;51.164;13.572;2023-03-22T04:59:07;99677.34;;;9.88;78.66
60611;BME280;46439;51.164;13.572;2023-03-22T05:01:38;99683.23;;;9.86;78.52
60611;BME280;46439;51.164;13.572;2023-03-22T05:04:08;99677.91;;;9.85;78.56
60611;BME280;46439;51.164;13.572;2023-03-22T05:06:37;99678.18;;;9.85;78.66
60611;BME280;46439;51.164;13.572;2023-03-22T05:09:06;99675.61;;;9.81;78.57
60611;BME280;46439;51.164;13.572;2023-03-22T05:11:35;99675.13;;;9.77;78.39
60611;BME280;46439;51.164;13.572;2023-03-22T05:14:04;99675.80;;;9.75;78.41
60611;BME280;46439;51.164;13.572;2023-03-22T05:16:34;99674.05;;;9.70;78.31
60611;BME280;46439;51.164;13.572;2023-03-22T05:19:03;99667.16;;;9.68;78.41
60611;BME280;46439;51.164;13.572;2023-03-22T05:21:34;99670.61;;;9.65;78.42
60611;BME280;46439;51.164;13.572;2023-03-22T05:24:05;99670.28;;;9.65;78.40
60611;BME280;46439;51.164;13.572;2023-03-22T05:26:34;99669.58;;;9.68;78.71
60611;BME280;46439;51.164;13.572;2023-03-22T05:29:05;99668.95;;;9.68;78.65
60611;BME280;46439;51.164;13.572;2023-03-22T05:31:34;99669.04;;;9.68;78.39
60611;BME280;46439;51.164;13.572;2023-03-22T05:34:03;99669.92;;;9.67;78.41
60611;BME280;46439;51.164;13.572;2023-03-22T05:36:32;99668.36;;;9.69;78.62
60611;BME280;46439;51.164;13.572;2023-03-22T05:39:04;99670.44;;;9.70;78.74
60611;BME280;46439;51.164;13.572;2023-03-22T05:41:33;99672.14;;;9.68;78.91
60611;BME280;46439;51.164;13.572;2023-03-22T05:44:02;99675.14;;;9.67;78.59
60611;BME280;46439;51.164;13.572;2023-03-22T05:46:31;99675.73;;;9.68;78.51
60611;BME280;46439;51.164;13.572;2023-03-22T05:48:59;99669.67;;;9.69;78.64
60611;BME280;46439;51.164;13.572;2023-03-22T05:51:28;99666.73;;;9.71;78.77
60611;BME280;46439;51.164;13.572;2023-03-22T05:53:58;99658.38;;;9.73;78.98
60611;BME280;46439;51.164;13.572;2023-03-22T05:56:28;99652.32;;;9.77;78.97
60611;BME280;46439;51.164;13.572;2023-03-22T05:58:57;99660.52;;;9.84;79.12
60611;BME280;46439;51.164;13.572;2023-03-22T06:04:12;99665.60;;;9.93;79.26
60611;BME280;46439;51.164;13.572;2023-03-22T06:06:46;99666.98;;;9.95;79.09
60611;BME280;46439;51.164;13.572;2023-03-22T06:09:43;99662.06;;;9.97;79.25
60611;BME280;46439;51.164;13.572;2023-03-22T06:20:26;99657.08;;;10.11;79.06
60611;BME280;46439;51.164;13.572;2023-03-22T06:22:55;99666.20;;;10.13;79.18
60611;BME280;46439;51.164;13.572;2023-03-22T06:25:23;99667.88;;;10.17;79.25
60611;BME280;46439;51.164;13.572;2023-03-22T06:27:52;99665.61;;;10.22;79.14
60611;BME280;46439;51.164;13.572;2023-03-22T06:30:20;99664.11;;;10.24;79.27
60611;BME280;46439;51.164;13.572;2023-03-22T06:32:49;99670.66;;;10.26;79.35
60611;BME280;46439;51.164;13.572;2023-03-22T06:35:18;99669.14;;;10.31;79.28
60611;BME280;46439;51.164;13.572;2023-03-22T06:37:47;99671.89;;;10.39;79.41
60611;BME280;46439;51.164;13.572;2023-03-22T06:40:15;99669.80;;;10.46;79.54
60611;BME280;46439;51.164;13.572;2023-03-22T06:42:44;99669.29;;;10.51;79.59
60611;BME280;46439;51.164;13.572;2023-03-22T06:45:13;99667.71;;;10.56;79.78
60611;BME280;46439;51.164;13.572;2023-03-22T06:47:43;99666.05;;;10.63;79.57
60611;BME280;46439;51.164;13.572;2023-03-22T06:50:12;99666.88;;;10.71;80.08
60611;BME280;46439;51.164;13.572;2023-03-22T06:52:43;99665.60;;;10.82;79.98
60611;BME280;46439;51.164;13.572;2023-03-22T06:55:11;99667.55;;;10.91;80.38
60611;BME280;46439;51.164;13.572;2023-03-22T06:57:40;99665.70;;;10.99;80.25
60611;BME280;46439;51.164;13.572;2023-03-22T07:00:11;99663.77;;;11.05;80.28
60611;BME280;46439;51.164;13.572;2023-03-22T07:02:39;99668.92;;;11.07;80.31
60611;BME280;46439;51.164;13.572;2023-03-22T07:05:09;99663.27;;;11.10;80.30
60611;BME280;46439;51.164;13.572;2023-03-22T07:07:38;99661.27;;;11.17;80.33
60611;BME280;46439;51.164;13.572;2023-03-22T07:10:08;99657.21;;;11.25;80.51
60611;BME280;46439;51.164;13.572;2023-03-22T07:12:36;99656.14;;;11.34;80.66
60611;BME280;46439;51.164;13.572;2023-03-22T07:15:06;99656.26;;;11.49;81.04
60611;BME280;46439;51.164;13.572;2023-03-22T07:17:35;99658.35;;;11.62;81.25
60611;BME280;46439;51.164;13.572;2023-03-22T07:20:04;99659.27;;;11.78;81.46
60611;BME280;46439;51.164;13.572;2023-03-22T07:22:33;99660.55;;;11.86;81.48
60611;BME280;46439;51.164;13.572;2023-03-22T07:25:02;99659.19;;;11.92;81.30
60611;BME280;46439;51.164;13.572;2023-03-22T07:27:30;99665.81;;;11.98;81.19
60611;BME280;46439;51.164;13.572;2023-03-22T07:29:59;99665.06;;;12.04;81.12
60611;BME280;46439;51.164;13.572;2023-03-22T07:32:27;99665.20;;;12.08;80.93
60611;BME280;46439;51.164;13.572;2023-03-22T07:34:56;99664.90;;;12.14;80.92
60611;BME280;46439;51.164;13.572;2023-03-22T07:37:24;99663.45;;;12.19;80.85
60611;BME280;46439;51.164;13.572;2023-03-22T07:39:52;99664.14;;;12.26;80.71
60611;BME280;46439;51.164;13.572;2023-03-22T07:42:21;99666.74;;;12.31;80.64
60611;BME280;46439;51.164;13.572;2023-03-22T07:44:49;99659.83;;;12.36;80.66
60611;BME280;46439;51.164;13.572;2023-03-22T07:47:18;99658.13;;;12.42;80.59
60611;BME280;46439;51.164;13.572;2023-03-22T07:49:46;99656.95;;;12.48;80.75
60611;BME280;46439;51.164;13.572;2023-03-22T07:52:15;99652.80;;;12.53;80.63
60611;BME280;46439;51.164;13.572;2023-03-22T07:54:43;99659.62;;;12.56;80.45
60611;BME280;46439;51.164;13.572;2023-03-22T07:57:12;99659.27;;;12.61;80.49
60611;BME280;46439;51.164;13.572;2023-03-22T07:59:40;99662.65;;;12.69;80.56
60611;BME280;46439;51.164;13.572;2023-03-22T08:02:11;99663.89;;;12.75;80.61
60611;BME280;46439;51.164;13.572;2023-03-22T08:04:40;99660.79;;;12.78;80.63
60611;BME280;46439;51.164;13.572;2023-03-22T08:07:08;99659.93;;;12.83;80.63
60611;BME280;46439;51.164;13.572;2023-03-22T08:09:37;99657.50;;;12.88;80.73
60611;BME280;46439;51.164;13.572;2023-03-22T08:12:06;99660.35;;;12.94;80.71
60611;BME280;46439;51.164;13.572;2023-03-22T08:14:35;99657.64;;;12.98;80.63
60611;BME280;46439;51.164;13.572;2023-03-22T08:17:05;99656.20;;;13.05;80.74
60611;BME280;46439;51.164;13.572;2023-03-22T08:19:33;99649.27;;;13.13;80.80
60611;BME280;46439;51.164;13.572;2023-03-22T08:22:02;99647.09;;;13.24;80.90
60611;BME280;46439;51.164;13.572;2023-03-22T08:24:31;99640.20;;;13.37;81.04
60611;BME280;46439;51.164;13.572;2023-03-22T08:26:59;99644.52;;;13.48;81.25
60611;BME280;46439;51.164;13.572;2023-03-22T08:29:28;99643.50;;;13.57;81.16
60611;BME280;46439;51.164;13.572;2023-03-22T08:31:57;99644.88;;;13.61;81.03
60611;BME280;46439;51.164;13.572;2023-03-22T08:34:29;99642.77;;;13.68;81.04
60611;BME280;46439;51.164;13.572;2023-03-22T08:36:58;99655.42;;;13.77;81.11
60611;BME280;46439;51.164;13.572;2023-03-22T08:39:26;99654.83;;;13.83;81.02
60611;BME280;46439;51.164;13.572;2023-03-22T08:41:55;99655.39;;;13.90;80.98
60611;BME280;46439;51.164;13.572;2023-03-22T08:44:24;99650.51;;;13.96;81.08
60611;BME280;46439;51.164;13.572;2023-03-22T08:46:53;99647.42;;;14.03;81.10
60611;BME280;46439;51.164;13.572;2023-03-22T08:49:22;99647.25;;;14.12;81.07
60611;BME280;46439;51.164;13.572;2023-03-22T08:51:51;99649.66;;;14.23;81.20
60611;BME280;46439;51.164;13.572;2023-03-22T08:54:19;99649.88;;;14.30;81.24
60611;BME280;46439;51.164;13.572;2023-03-22T08:56:48;99646.85;;;14.35;81.10
60611;BME280;46439;51.164;13.572;2023-03-22T08:59:17;99641.12;;;14.40;81.00
60611;BME280;46439;51.164;13.572;2023-03-22T09:01:45;99642.80;;;14.42;80.89
60611;BME280;46439;51.164;13.572;2023-03-22T09:04:14;99644.73;;;14.47;80.91
60611;BME280;46439;51.164;13.572;2023-03-22T09:06:43;99642.61;;;14.53;80.84
60611;BME280;46439;51.164;13.572;2023-03-22T09:09:12;99640.77;;;14.58;80.93
60611;BME280;46439;51.164;13.572;2023-03-22T09:11:41;99636.77;;;14.64;80.87
60611;BME280;46439;51.164;13.572;2023-03-22T09:14:10;99630.92;;;14.71;80.87
60611;BME280;46439;51.164;13.572;2023-03-22T09:16:38;99631.20;;;14.78;80.87
60611;BME280;46439;51.164;13.572;2023-03-22T09:19:07;99634.56;;;14.84;80.80
60611;BME280;46439;51.164;13.572;2023-03-22T09:21:36;99635.02;;;14.88;80.78
60611;BME280;46439;51.164;13.572;2023-03-22T09:24:05;99630.35;;;14.93;80.74
60611;BME280;46439;51.164;13.572;2023-03-22T09:26:33;99629.36;;;14.98;80.65
60611;BME280;46439;51.164;13.572;2023-03-22T09:29:02;99629.59;;;15.03;80.55
60611;BME280;46439;51.164;13.572;2023-03-22T09:31:30;99623.92;;;15.09;80.62
60611;BME280;46439;51.164;13.572;2023-03-22T09:33:59;99627.77;;;15.12;80.52
60611;BME280;46439;51.164;13.572;2023-03-22T09:36:28;99621.10;;;15.14;80.39
60611;BME280;46439;51.164;13.572;2023-03-22T09:38:56;99613.34;;;15.19;80.43
60611;BME280;46439;51.164;13.572;2023-03-22T09:41:32;99606.80;;;15.20;80.30
60611;BME280;46439;51.164;13.572;2023-03-22T09:44:07;99606.86;;;15.26;80.19
60611;BME280;46439;51.164;13.572;2023-03-22T09:46:41;99603.00;;;15.35;80.33
60611;BME280;46439;51.164;13.572;2023-03-22T09:49:15;99598.81;;;15.47;80.47
60611;BME280;46439;51.164;13.572;2023-03-22T09:51:46;99598.12;;;15.58;80.46
60611;BME280;46439;51.164;13.572;2023-03-22T09:54:17;99597.42;;;15.67;80.47
60611;BME280;46439;51.164;13.572;2023-03-22T09:56:52;99595.29;;;15.73;80.32
60611;BME280;46439;51.164;13.572;2023-03-22T09:59:28;99593.11;;;15.77;80.30
60611;BME280;46439;51.164;13.572;2023-03-22T10:02:10;99587.64;;;15.81;80.14
60611;BME280;46439;51.164;13.572;2023-03-22T10:04:49;99586.38;;;15.86;79.98
60611;BME280;46439;51.164;13.572;2023-03-22T10:07:26;99587.92;;;15.90;79.96
60611;BME280;46439;51.164;13.572;2023-03-22T10:10:07;99581.59;;;15.92;79.86
60611;BME280;46439;51.164;13.572;2023-03-22T10:12:40;99582.71;;;15.98;79.84
60611;BME280;46439;51.164;13.572;2023-03-22T10:15:15;99582.29;;;16.03;79.83
60611;BME280;46439;51.164;13.572;2023-03-22T10:17:49;99584.95;;;16.10;79.76
60611;BME280;46439;51.164;13.572;2023-03-22T10:20:28;99581.23;;;16.16;79.73
60611;BME280;46439;51.164;13.572;2023-03-22T10:23:01;99578.66;;;16.19;79.73
60611;BME280;46439;51.164;13.572;2023-03-22T10:25:35;99577.74;;;16.22;79.56
60611;BME280;46439;51.164;13.572;2023-03-22T10:28:13;99570.22;;;16.25;79.30
60611;BME280;46439;51.164;13.572;2023-03-22T10:30:43;99571.12;;;16.31;79.43
60611;BME280;46439;51.164;13.572;2023-03-22T10:33:18;99564.40;;;16.32;79.19
60611;BME280;46439;51.164;13.572;2023-03-22T10:35:51;99562.34;;;16.36;79.17
60611;BME280;46439;51.164;13.572;2023-03-22T10:38:23;99558.25;;;16.36;79.02
60611;BME280;46439;51.164;13.572;2023-03-22T10:40:56;99553.26;;;16.37;78.76
60611;BME280;46439;51.164;13.572;2023-03-22T10:43:24;99554.18;;;16.40;78.69
60611;BME280;46439;51.164;13.572;2023-03-22T10:49:05;99542.10;;;16.58;78.95
60611;BME280;46439;51.164;13.572;2023-03-22T10:51:40;99541.41;;;16.60;78.86
60611;BME280;46439;51.164;13.572;2023-03-22T10:54:15;99536.52;;;16.62;78.74
60611;BME280;46439;51.164;13.572;2023-03-22T10:56:47;99534.53;;;16.67;78.70
60611;BME280;46439;51.164;13.572;2023-03-22T10:59:45;99532.05;;;16.74;78.71
60611;BME280;46439;51.164;13.572;2023-03-22T11:02:23;99530.20;;;16.78;78.60
60611;BME280;46439;51.164;13.572;2023-03-22T11:04:54;99524.31;;;16.82;78.58
60611;BME280;46439;51.164;13.572;2023-03-22T11:07:35;99521.99;;;16.86;78.36
60611;BME280;46439;51.164;13.572;2023-03-22T11:10:28;99520.85;;;16.92;78.33
60611;BME280;46439;51.164;13.572;2023-03-22T11:13:12;99516.38;;;17.00;78.39
60611;BME280;46439;51.164;13.572;2023-03-22T11:15:50;99510.36;;;17.07;78.29
60611;BME280;46439;51.164;13.572;2023-03-22T11:18:20;99507.65;;;17.15;78.25
60611;BME280;46439;51.164;13.572;2023-03-22T11:20:57;99505.30;;;17.23;78.21
60611;BME280;46439;51.164;13.572;2023-03-22T11:23:28;99497.79;;;17.32;78.16
60611;BME280;46439;51.164;13.572;2023-03-22T11:26:02;99494.94;;;17.36;78.08
60611;BME280;46439;51.164;13.572;2023-03-22T11:28:36;99495.13;;;17.43;77.85
60611;BME280;46439;51.164;13.572;2023-03-22T11:31:10;99489.04;;;17.53;77.80
60611;BME280;46439;51.164;13.572;2023-03-22T11:33:52;99485.41;;;17.61;77.73
60611;BME280;46439;51.164;13.572;2023-03-22T11:36:27;99482.33;;;17.67;77.50
60611;BME280;46439;51.164;13.572;2023-03-22T11:39:18;99478.32;;;17.71;77.32
60611;BME280;46439;51.164;13.572;2023-03-22T11:42:13;99473.33;;;17.80;77.36
60611;BME280;46439;51.164;13.572;2023-03-22T11:47:57;99465.19;;;17.95;77.03
60611;BME280;46439;51.164;13.572;2023-03-22T11:50:54;99463.32;;;17.98;76.79
60611;BME280;46439;51.164;13.572;2023-03-22T11:53:44;99454.23;;;18.01;76.50
60611;BME280;46439;51.164;13.572;2023-03-22T11:56:40;99444.96;;;18.09;76.47
60611;BME280;46439;51.164;13.572;2023-03-22T11:59:29;99448.64;;;18.15;76.18
60611;BME280;46439;51.164;13.572;2023-03-22T12:02:04;99444.49;;;18.21;76.07
60611;BME280;46439;51.164;13.572;2023-03-22T12:04:40;99441.77;;;18.33;75.97
60611;BME280;46439;51.164;13.572;2023-03-22T12:07:12;99442.25;;;18.40;75.86
60611;BME280;46439;51.164;13.572;2023-03-22T12:09:45;99438.71;;;18.40;75.50
60611;BME280;46439;51.164;13.572;2023-03-22T12:12:20;99432.66;;;18.44;75.33
60611;BME280;46439;51.164;13.572;2023-03-22T12:14:53;99433.21;;;18.50;75.23
60611;BME280;46439;51.164;13.572;2023-03-22T12:17:30;99428.44;;;18.55;74.99
60611;BME280;46439;51.164;13.572;2023-03-22T12:20:09;99430.41;;;18.57;74.76
60611;BME280;46439;51.164;13.572;2023-03-22T12:22:42;99425.13;;;18.58;74.53
60611;BME280;46439;51.164;13.572;2023-03-22T12:25:18;99427.11;;;18.60;74.11
60611;BME280;46439;51.164;13.572;2023-03-22T12:27:51;99426.05;;;18.64;74.02
60611;BME280;46439;51.164;13.572;2023-03-22T12:30:24;99417.19;;;18.67;73.90
60611;BME280;46439;51.164;13.572;2023-03-22T12:32:57;99414.98;;;18.70;73.67
60611;BME280;46439;51.164;13.572;2023-03-22T12:35:32;99411.46;;;18.73;73.51
60611;BME280;46439;51.164;13.572;2023-03-22T12:38:08;99412.31;;;18.75;73.28
60611;BME280;46439;51.164;13.572;2023-03-22T12:40:41;99417.29;;;18.79;73.22
60611;BME280;46439;51.164;13.572;2023-03-22T12:43:10;99417.11;;;18.80;73.00
60611;BME280;46439;51.164;13.572;2023-03-22T12:45:43;99420.25;;;18.79;72.63
60611;BME280;46439;51.164;13.572;2023-03-22T12:48:20;99417.14;;;18.80;72.53
60611;BME280;46439;51.164;13.572;2023-03-22T12:50:55;99411.17;;;18.81;72.25
60611;BME280;46439;51.164;13.572;2023-03-22T12:53:29;99410.62;;;18.83;72.04
60611;BME280;46439;51.164;13.572;2023-03-22T12:56:01;99412.91;;;18.86;71.97
60611;BME280;46439;51.164;13.572;2023-03-22T12:58:30;99406.64;;;18.90;71.87
60611;BME280;46439;51.164;13.572;2023-03-22T13:01:07;99401.07;;;18.97;71.84
60611;BME280;46439;51.164;13.572;2023-03-22T13:03:43;99399.82;;;19.08;71.80
60611;BME280;46439;51.164;13.572;2023-03-22T13:09:35;99391.58;;;19.16;71.42
60611;BME280;46439;51.164;13.572;2023-03-22T13:26:56;99375.61;;;19.13;70.05
60611;BME280;46439;51.164;13.572;2023-03-22T13:29:34;99373.46;;;19.12;69.88
60611;BME280;46439;51.164;13.572;2023-03-22T13:32:23;99368.46;;;19.11;69.70
60611;BME280;46439;51.164;13.572;2023-03-22T13:34:56;99370.66;;;19.11;69.62
60611;BME280;46439;51.164;13.572;2023-03-22T13:37:30;99368.02;;;19.10;69.46
60611;BME280;46439;51.164;13.572;2023-03-22T13:40:03;99357.91;;;19.07;69.17
60611;BME280;46439;51.164;13.572;2023-03-22T13:42:40;99352.94;;;19.01;69.04
60611;BME280;46439;51.164;13.572;2023-03-22T13:45:29;99348.21;;;18.99;68.86
60611;BME280;46439;51.164;13.572;2023-03-22T13:48:05;99344.50;;;19.00;68.75
60611;BME280;46439;51.164;13.572;2023-03-22T13:50:37;99341.53;;;18.99;68.61
60611;BME280;46439;51.164;13.572;2023-03-22T13:53:12;99340.26;;;19.01;68.46
60611;BME280;46439;51.164;13.572;2023-03-22T13:55:58;99336.00;;;19.03;68.46
60611;BME280;46439;51.164;13.572;2023-03-22T13:58:36;99333.88;;;19.04;68.23
60611;BME280;46439;51.164;13.572;2023-03-22T14:01:19;99324.45;;;19.01;68.17